Time;durP1;ratioP1;P1;durP2;ratioP2;P2;SDS_P1;SDS_P2;PMS_P1;PMS_P2;Temp;Humidity;BMP_temperature;BMP_pressure;BME280_temperature;BME280_humidity;BME280_pressure;Samples;Min_cycle;Max_cycle;Signal;HPM_P1;HPM_P2
2021/08/13 00:02:00;;;;;;;5.03;2.97;;;;;;;25.64;39.08;95540.94;5026293;28;20056;-73
2021/08/13 00:04:26;;;;;;;5.93;2.55;;;;;;;25.59;39.24;95540.44;5027443;28;20037;-73
2021/08/13 00:06:51;;;;;;;5.38;2.80;;;;;;;25.57;39.03;95538.22;5026577;28;20043;-74
2021/08/13 00:09:17;;;;;;;4.70;2.78;;;;;;;25.54;38.88;95541.97;5027189;28;20297;-73
2021/08/13 00:11:43;;;;;;;5.95;3.33;;;;;;;25.55;39.20;95540.00;5024765;28;20033;-72
2021/08/13 00:14:09;;;;;;;5.15;2.88;;;;;;;25.56;39.30;95536.00;5027385;28;20025;-74
2021/08/13 00:16:35;;;;;;;5.57;2.90;;;;;;;25.56;38.64;95536.75;5025098;28;20057;-74
2021/08/13 00:19:01;;;;;;;5.05;2.80;;;;;;;25.52;39.20;95530.09;5027189;28;20117;-74
2021/08/13 00:21:27;;;;;;;7.47;2.97;;;;;;;25.52;39.26;95535.56;5025144;28;20467;-75
2021/08/13 00:23:52;;;;;;;6.10;2.90;;;;;;;25.51;38.74;95534.06;5025578;28;20191;-74
2021/08/13 00:26:17;;;;;;;4.78;2.75;;;;;;;25.48;39.12;95535.09;5024887;28;20025;-74
2021/08/13 00:28:43;;;;;;;5.80;2.97;;;;;;;25.52;38.82;95533.56;5025842;28;20131;-74
2021/08/13 00:31:08;;;;;;;4.20;2.80;;;;;;;25.52;38.55;95530.09;5024601;28;20026;-74
2021/08/13 00:33:34;;;;;;;5.20;2.90;;;;;;;25.46;38.99;95521.94;5026941;28;20038;-73
2021/08/13 00:35:59;;;;;;;4.35;2.50;;;;;;;25.49;38.89;95528.38;5023888;28;20443;-73
2021/08/13 00:38:25;;;;;;;4.05;2.42;;;;;;;25.41;38.65;95524.69;5025688;28;20087;-74
2021/08/13 00:40:50;;;;;;;3.97;2.60;;;;;;;25.43;38.91;95527.69;5007087;28;20424;-74
2021/08/13 00:43:16;;;;;;;5.55;2.63;;;;;;;25.43;38.87;95533.16;5025329;28;20099;-74
2021/08/13 00:45:41;;;;;;;3.78;2.67;;;;;;;25.38;39.09;95525.72;5025865;28;20492;-74
2021/08/13 00:48:07;;;;;;;4.65;2.90;;;;;;;25.26;39.14;95524.34;5026399;28;20028;-74
2021/08/13 00:50:32;;;;;;;4.25;2.50;;;;;;;25.32;39.16;95527.78;5025605;28;20504;-73
2021/08/13 00:52:58;;;;;;;4.93;2.75;;;;;;;25.29;38.64;95534.28;5026281;28;20416;-73
2021/08/13 00:55:24;;;;;;;5.43;2.67;;;;;;;25.23;38.85;95541.78;5023715;28;20113;-74
2021/08/13 00:57:49;;;;;;;4.18;2.30;;;;;;;25.29;39.16;95538.97;5025294;28;20033;-74
2021/08/13 01:00:15;;;;;;;5.57;2.78;;;;;;;25.31;38.41;95541.97;5022237;28;20034;-73
2021/08/13 01:02:40;;;;;;;5.18;2.70;;;;;;;25.31;38.93;95548.16;5026281;28;20056;-74
2021/08/13 01:05:06;;;;;;;3.97;2.38;;;;;;;25.30;39.02;95551.41;5025444;28;20033;-74
2021/08/13 01:07:31;;;;;;;5.00;2.95;;;;;;;25.20;38.54;95537.31;5026048;28;20037;-74
2021/08/13 01:09:57;;;;;;;4.97;2.63;;;;;;;25.26;38.52;95546.22;5026316;28;20370;-73
2021/08/13 01:12:29;;;;;;;5.80;3.05;;;;;;;25.26;38.70;95540.00;5026192;28;20735;-73
2021/08/13 01:15:15;;;;;;;5.00;2.60;;;;;;;25.24;38.64;95548.69;5023116;28;20083;-74
2021/08/13 01:17:50;;;;;;;6.60;3.30;;;;;;;25.21;38.58;95533.31;5026261;28;20099;-75
2021/08/13 01:20:43;;;;;;;4.35;2.67;;;;;;;25.25;38.73;95550.19;5023744;28;20029;-73
2021/08/13 01:23:15;;;;;;;4.05;2.42;;;;;;;25.20;38.39;95531.84;5025693;28;20029;-74
2021/08/13 01:25:42;;;;;;;7.20;3.00;;;;;;;25.23;38.65;95530.84;5020451;28;20029;-73
2021/08/13 01:28:33;;;;;;;5.97;2.75;;;;;;;25.26;38.81;95546.22;5007308;28;20025;-73
2021/08/13 01:30:59;;;;;;;4.38;2.92;;;;;;;25.25;38.20;95544.72;5017598;28;20623;-73
2021/08/13 01:33:25;;;;;;;7.55;3.20;;;;;;;25.26;38.71;95538.03;5006330;28;20037;-72
2021/08/13 01:35:50;;;;;;;5.28;2.65;;;;;;;25.20;38.37;95531.09;5022119;28;20029;-73
2021/08/13 01:38:24;;;;;;;6.90;2.80;;;;;;;25.26;38.52;95535.28;5024297;28;20033;-75
2021/08/13 01:40:51;;;;;;;4.93;2.78;;;;;;;25.36;38.18;95528.22;5007936;28;20021;-74
2021/08/13 01:43:18;;;;;;;4.32;2.60;;;;;;;25.43;38.73;95538.63;5023658;28;20033;-74
2021/08/13 01:45:43;;;;;;;5.28;2.67;;;;;;;25.43;38.28;95522.22;5022634;28;20026;-75
2021/08/13 01:48:09;;;;;;;6.20;3.15;;;;;;;25.51;38.48;95534.81;5024568;28;20091;-75
2021/08/13 01:50:34;;;;;;;5.55;2.85;;;;;;;-139.52;0.00;74817.53;5024898;28;20033;-75
2021/08/13 01:53:00;;;;;;;5.63;3.25;;;;;;;25.58;37.92;95539.00;5024348;28;20033;-74
2021/08/13 01:55:25;;;;;;;5.45;2.90;;;;;;;25.59;37.93;95535.75;5023816;28;20488;-75
2021/08/13 01:57:51;;;;;;;5.47;2.97;;;;;;;25.57;37.75;95537.50;5007821;28;20116;-75
2021/08/13 02:00:20;;;;;;;4.35;2.78;;;;;;;25.59;37.98;95540.44;5022449;28;20112;-75
2021/08/13 02:02:46;;;;;;;5.05;2.80;;;;;;;25.63;38.40;95524.50;5023445;28;20022;-75
2021/08/13 02:05:11;;;;;;;5.15;2.83;;;;;;;25.67;37.56;95525.00;5039878;28;20056;-75
2021/08/13 02:07:38;;;;;;;4.07;2.60;;;;;;;25.64;37.68;95531.47;5025735;28;20056;-74
2021/08/13 02:10:04;;;;;;;5.03;2.75;;;;;;;25.63;37.70;95529.97;5022289;28;20040;-74
2021/08/13 02:12:30;;;;;;;6.30;3.47;;;;;;;25.62;37.46;95534.72;5023640;28;20492;-73
2021/08/13 02:14:55;;;;;;;6.88;2.90;;;;;;;25.64;37.68;95539.69;5024244;28;20029;-75
2021/08/13 02:17:21;;;;;;;6.93;3.10;;;;;;;25.67;37.94;95525.00;5025493;28;20025;-74
2021/08/13 02:19:53;;;;;;;4.65;2.90;;;;;;;25.62;37.60;95533.97;5024803;28;20055;-74
2021/08/13 02:22:19;;;;;;;5.22;2.80;;;;;;;25.64;37.93;95531.47;5023849;28;20029;-74
2021/08/13 02:24:44;;;;;;;6.20;3.10;;;;;;;25.64;37.62;95536.94;5028557;28;20036;-74
2021/08/13 02:27:10;;;;;;;5.82;3.00;;;;;;;25.58;38.13;95539.00;5029566;28;20036;-74
2021/08/13 02:29:35;;;;;;;12.32;6.32;;;;;;;25.53;38.83;95532.31;5025977;28;20048;-74
2021/08/13 02:32:01;;;;;;;17.10;8.20;;;;;;;25.45;39.62;95547.03;5026621;28;20025;-74
2021/08/13 02:34:26;;;;;;;15.63;7.70;;;;;;;25.35;39.72;95534.94;5028613;28;20030;-74
2021/08/13 02:36:57;;;;;;;12.80;6.20;;;;;;;25.19;40.31;95530.34;5026638;28;20029;-74
2021/08/13 02:39:26;;;;;;;10.02;5.63;;;;;;;25.18;40.76;95539.81;5011968;28;20144;-75
2021/08/13 02:41:52;;;;;;;9.82;4.43;;;;;;;25.10;41.60;95549.81;5027581;28;20022;-75
2021/08/13 02:44:17;;;;;;;7.40;4.00;;;;;;;25.00;41.97;95540.44;5027923;28;20033;-75
2021/08/13 02:46:47;;;;;;;5.35;2.97;;;;;;;24.87;41.93;95542.97;5026799;28;20036;-75
2021/08/13 02:49:13;;;;;;;;;;;;;;;24.82;42.08;95551.94;5028350;28;20041;-75
2021/08/13 02:51:40;;;;;;;5.43;3.10;;;;;;;24.73;42.84;95558.97;5061019;28;20379;-74
2021/08/13 02:54:05;;;;;;;6.82;3.95;;;;;;;24.65;43.25;95558.00;5027131;28;20025;-74
2021/08/13 02:56:32;;;;;;;5.55;3.65;;;;;;;24.57;43.29;95546.13;5040619;28;20046;-74
2021/08/13 02:59:02;;;;;;;6.32;3.40;;;;;;;24.52;43.07;95555.09;5021205;28;20033;-74
2021/08/13 03:01:30;;;;;;;5.63;3.88;;;;;;;24.47;43.75;95564.06;5025675;28;20482;-75
2021/08/13 03:03:55;;;;;;;6.25;3.70;;;;;;;24.39;43.45;95546.69;5027217;28;20078;-75
2021/08/13 03:06:22;;;;;;;8.10;3.20;;;;;;;24.29;43.98;95531.06;5020625;28;20045;-75
2021/08/13 03:08:48;;;;;;;9.32;3.63;;;;;;;24.19;43.97;95555.19;5021952;28;20565;-75
2021/08/13 03:11:14;;;;;;;7.63;3.60;;;;;;;24.25;44.17;95564.09;5023710;28;20017;-75
2021/08/13 03:13:40;;;;;;;8.65;3.95;;;;;;;24.30;43.91;95560.59;5022720;28;20076;-75
2021/08/13 03:16:06;;;;;;;5.50;3.50;;;;;;;24.25;44.04;95569.56;5009771;28;20705;-75
2021/08/13 03:18:31;;;;;;;4.45;3.45;;;;;;;24.18;44.30;95570.06;5024291;28;20292;-74
2021/08/13 03:20:57;;;;;;;5.88;3.20;;;;;;;24.12;44.21;95566.63;5022355;28;20071;-74
2021/08/13 03:23:22;;;;;;;5.95;3.70;;;;;;;24.10;43.79;95566.38;5025004;28;20029;-74
2021/08/13 03:25:48;;;;;;;9.20;3.72;;;;;;;24.04;44.19;95559.47;5026505;28;20029;-74
2021/08/13 03:28:13;;;;;;;5.97;3.75;;;;;;;24.08;44.30;95571.59;5008366;28;20029;-75
2021/08/13 03:30:42;;;;;;;8.30;3.58;;;;;;;24.02;44.99;95568.16;5027741;28;20032;-74
2021/08/13 03:33:09;;;;;;;6.00;4.00;;;;;;;23.90;44.48;95572.13;5028049;28;20017;-74
2021/08/13 03:35:35;;;;;;;6.85;3.47;;;;;;;23.98;44.87;95578.56;5007753;28;20286;-74
2021/08/13 03:38:00;;;;;;;6.20;3.40;;;;;;;23.98;44.11;95577.81;5025316;28;20029;-73
2021/08/13 03:40:25;;;;;;;8.85;3.83;;;;;;;23.94;44.39;95578.06;5021157;28;20040;-75
2021/08/13 03:42:51;;;;;;;5.28;3.65;;;;;;;23.89;44.24;95570.66;5026973;28;20144;-74
2021/08/13 03:45:16;;;;;;;6.43;3.60;;;;;;;23.89;44.89;95575.38;5026598;28;20060;-75
2021/08/13 03:47:42;;;;;;;6.20;3.45;;;;;;;23.91;45.01;95584.50;5028231;28;20420;-73
2021/08/13 03:50:08;;;;;;;8.35;4.72;;;;;;;23.95;44.70;95585.00;5026297;28;20040;-76
2021/08/13 03:52:33;;;;;;;12.43;5.85;;;;;;;23.99;45.15;95579.28;5027359;28;20033;-73
2021/08/13 03:54:59;;;;;;;9.63;5.32;;;;;;;23.94;45.21;95578.06;5025721;28;20030;-74
2021/08/13 03:57:24;;;;;;;9.05;4.30;;;;;;;23.87;45.63;95578.59;5021066;28;20041;-74
2021/08/13 03:59:49;;;;;;;7.53;4.40;;;;;;;23.79;45.96;95587.03;5022192;28;20029;-74
2021/08/13 04:02:15;;;;;;;8.57;4.55;;;;;;;23.77;45.60;95578.63;5019897;28;20053;-75
2021/08/13 04:04:40;;;;;;;6.97;4.05;;;;;;;23.77;45.49;95584.06;5022491;28;20033;-76
2021/08/13 04:07:06;;;;;;;6.32;3.70;;;;;;;23.73;45.68;95586.28;5023163;28;20480;-75
2021/08/13 04:09:31;;;;;;;5.95;3.85;;;;;;;23.79;45.73;95582.31;5021419;28;20526;-74
2021/08/13 04:11:56;;;;;;;5.43;3.30;;;;;;;23.85;45.71;95579.59;5022798;28;20025;-75
2021/08/13 04:14:22;;;;;;;10.00;3.83;;;;;;;23.78;46.12;95585.53;5022840;28;20492;-75
2021/08/13 04:16:47;;;;;;;6.53;4.03;;;;;;;23.76;45.69;95588.75;5020171;28;20041;-75
2021/08/13 04:19:13;;;;;;;6.53;4.03;;;;;;;23.74;46.06;95582.34;5023132;28;20034;-75
2021/08/13 04:21:38;;;;;;;9.75;3.80;;;;;;;23.74;45.48;95574.16;5022190;28;20041;-75
2021/08/13 04:24:04;;;;;;;7.38;3.70;;;;;;;23.75;45.11;95586.53;5022629;28;20033;-75
2021/08/13 04:26:29;;;;;;;7.88;3.85;;;;;;;23.73;45.52;95586.28;5021368;28;20040;-75
2021/08/13 04:28:55;;;;;;;5.68;3.80;;;;;;;23.78;45.45;95597.22;5023176;28;20033;-75
2021/08/13 04:31:20;;;;;;;9.20;3.90;;;;;;;23.80;45.38;95588.53;5021742;28;20429;-74
2021/08/13 04:33:46;;;;;;;7.10;3.75;;;;;;;23.77;45.37;95589.53;5023028;28;20037;-75
2021/08/13 04:36:11;;;;;;;9.07;4.22;;;;;;;23.75;45.48;95600.16;5025519;28;20041;-74
2021/08/13 04:38:37;;;;;;;7.40;4.05;;;;;;;23.72;45.79;95603.88;5026134;28;20029;-73
2021/08/13 04:41:02;;;;;;;9.50;4.05;;;;;;;23.74;45.29;95612.34;5025677;28;20506;-74
2021/08/13 04:43:28;;;;;;;7.03;4.30;;;;;;;23.75;46.06;95602.91;5026075;28;20044;-74
2021/08/13 04:45:53;;;;;;;8.02;4.43;;;;;;;23.74;46.58;95606.88;5025770;28;20178;-73
2021/08/13 04:48:18;;;;;;;7.15;4.00;;;;;;;23.82;45.56;95607.84;5024032;28;20045;-74
2021/08/13 04:50:44;;;;;;;7.70;4.40;;;;;;;23.86;45.80;95602.91;5026683;28;20033;-75
2021/08/13 04:53:09;;;;;;;8.20;4.30;;;;;;;23.86;45.88;95604.38;5024106;28;20087;-75
2021/08/13 04:55:35;;;;;;;15.55;4.50;;;;;;;23.88;46.07;95596.44;5025578;28;20041;-74
2021/08/13 04:58:00;;;;;;;15.98;5.35;;;;;;;23.86;45.83;95592.72;5024895;28;20491;-75
2021/08/13 05:00:26;;;;;;;13.05;4.28;;;;;;;23.88;46.21;95601.91;5025686;28;20033;-75
2021/08/13 05:02:51;;;;;;;15.43;4.28;;;;;;;23.87;45.37;95594.22;5021321;28;20040;-75
2021/08/13 05:05:17;;;;;;;11.32;4.28;;;;;;;23.90;45.79;95593.97;5026494;28;20029;-75
2021/08/13 05:07:43;;;;;;;10.75;4.28;;;;;;;23.94;45.22;95594.44;5024518;28;20025;-74
2021/08/13 05:10:10;;;;;;;8.07;4.07;;;;;;;23.97;45.46;95598.88;5026453;28;20033;-75
2021/08/13 05:12:36;;;;;;;8.30;4.10;;;;;;;24.01;44.93;95599.38;5024817;28;20560;-75
2021/08/13 05:15:02;;;;;;;6.80;3.90;;;;;;;24.04;45.25;95597.66;5025976;28;20152;-74
2021/08/13 05:17:27;;;;;;;9.77;4.00;;;;;;;24.08;44.77;95604.34;5025960;28;20037;-78
2021/08/13 05:19:52;;;;;;;8.57;4.07;;;;;;;24.12;44.94;95610.28;5025967;28;20025;-74
2021/08/13 05:22:18;;;;;;;7.93;4.20;;;;;;;24.11;45.91;95608.81;5022876;28;20026;-72
2021/08/13 05:24:43;;;;;;;7.65;4.28;;;;;;;24.08;46.27;95604.34;5026077;28;20033;-72
2021/08/13 05:27:09;;;;;;;8.43;4.28;;;;;;;24.12;46.00;95615.72;5024084;28;20515;-79
2021/08/13 05:29:34;;;;;;;9.75;4.70;;;;;;;24.28;44.99;95606.78;5021522;28;20025;-78
2021/08/13 05:32:00;;;;;;;8.73;4.30;;;;;;;24.36;45.35;95607.75;5024699;28;20485;-78
2021/08/13 05:34:25;;;;;;;9.02;5.05;;;;;;;24.45;45.33;95610.22;5025965;28;20024;-77
2021/08/13 05:36:51;;;;;;;8.73;4.90;;;;;;;24.51;45.11;95619.13;5025958;28;20389;-75
2021/08/13 05:39:16;;;;;;;20.15;5.05;;;;;;;24.57;45.15;95598.00;4789738;28;22957;-75
2021/08/13 05:41:42;;;;;;;24.40;5.40;;;;;;;24.72;44.86;95601.16;4999425;28;20053;-76
2021/08/13 05:44:07;;;;;;;18.08;5.57;;;;;;;24.86;44.39;95600.88;5012137;28;20029;-76
2021/08/13 05:46:33;;;;;;;19.70;5.32;;;;;;;24.95;45.21;95609.50;5024259;28;20025;-79
2021/08/13 05:49:00;;;;;;;9.80;5.35;;;;;;;25.08;44.02;95606.97;5023814;28;20021;-80
2021/08/13 05:51:25;;;;;;;11.13;5.00;;;;;;;25.21;44.00;95615.31;5013942;28;20027;-74
2021/08/13 05:53:51;;;;;;;10.45;4.55;;;;;;;25.35;43.22;95619.69;5025262;28;20025;-73
2021/08/13 05:56:16;;;;;;;11.93;4.65;;;;;;;25.52;43.01;95623.81;5024784;28;20029;-73
2021/08/13 05:58:42;;;;;;;9.35;4.90;;;;;;;25.65;43.01;95620.50;5025106;28;20091;-72
2021/08/13 06:01:07;;;;;;;14.32;4.60;;;;;;;25.68;42.12;95609.31;5024618;28;20049;-72
2021/08/13 06:03:32;;;;;;;8.30;4.65;;;;;;;25.90;41.60;95626.28;5040248;28;20033;-72
2021/08/13 06:05:58;;;;;;;10.73;4.60;;;;;;;26.04;41.63;95621.69;5023273;28;20043;-73
2021/08/13 06:08:23;;;;;;;9.35;4.30;;;;;;;26.20;40.87;95626.22;5024034;28;20044;-73
2021/08/13 06:10:49;;;;;;;11.27;4.30;;;;;;;26.27;40.75;95626.41;5024257;28;20111;-75
2021/08/13 06:13:16;;;;;;;13.48;4.50;;;;;;;26.42;40.34;95621.28;5023490;28;20033;-75
2021/08/13 06:15:41;;;;;;;9.32;4.22;;;;;;;26.53;40.42;95621.16;5024706;28;20125;-74
2021/08/13 06:18:07;;;;;;;8.70;4.43;;;;;;;26.55;40.65;95618.66;5025036;28;20029;-73
2021/08/13 06:20:32;;;;;;;10.25;4.03;;;;;;;26.74;40.36;95624.91;5024759;28;20032;-74
2021/08/13 06:22:58;;;;;;;8.18;3.90;;;;;;;26.85;39.81;95626.25;5024710;28;20095;-73
2021/08/13 06:25:23;;;;;;;8.75;4.10;;;;;;;26.99;39.26;95629.84;5024992;28;20024;-74
2021/08/13 06:27:48;;;;;;;8.60;4.22;;;;;;;27.09;39.01;95628.97;5024739;28;20056;-74
2021/08/13 06:30:18;;;;;;;8.55;3.53;;;;;;;27.07;39.56;95631.50;5023861;28;20128;-74
2021/08/13 06:32:43;;;;;;;10.63;3.60;;;;;;;27.11;39.61;95620.22;5018159;28;20174;-74
2021/08/13 06:35:09;;;;;;;9.50;3.88;;;;;;;27.18;39.57;95619.63;5022481;28;20044;-74
2021/08/13 06:37:48;;;;;;;10.13;3.67;;;;;;;27.25;39.32;95620.50;5023393;28;20025;-75
2021/08/13 06:40:14;;;;;;;7.03;3.53;;;;;;;27.34;39.37;95617.38;5017855;28;20057;-75
2021/08/13 06:42:40;;;;;;;11.13;3.83;;;;;;;27.35;39.36;95618.13;5025099;28;20033;-74
2021/08/13 06:45:07;;;;;;;6.85;3.45;;;;;;;27.40;39.13;95614.56;5039650;28;20503;-73
2021/08/13 06:47:33;;;;;;;8.18;3.42;;;;;;;27.43;39.60;95619.00;5024265;28;20038;-73
2021/08/13 06:49:58;;;;;;;5.90;3.38;;;;;;;27.45;39.30;95627.47;5024526;28;20020;-73
2021/08/13 06:52:36;;;;;;;6.75;3.17;;;;;;;27.46;39.75;95628.94;5022896;28;20036;-72
2021/08/13 06:55:01;;;;;;;6.30;3.17;;;;;;;27.42;39.39;95628.50;5023051;28;20072;-73
2021/08/13 06:57:26;;;;;;;6.70;3.40;;;;;;;27.32;39.73;95630.13;5024433;28;20026;-73
2021/08/13 06:59:52;;;;;;;5.07;3.13;;;;;;;27.43;39.40;95632.72;5024015;28;20056;-74
2021/08/13 07:02:17;;;;;;;5.72;3.28;;;;;;;27.45;39.73;95643.91;5023842;28;20466;-74
2021/08/13 07:04:43;;;;;;;6.22;3.00;;;;;;;27.50;39.86;95645.88;5022668;28;20034;-74
2021/08/13 07:07:08;;;;;;;5.70;2.97;;;;;;;27.48;39.46;95637.38;5039330;28;20025;-74
2021/08/13 07:09:34;;;;;;;8.43;3.50;;;;;;;27.49;39.55;95638.88;5026409;28;20025;-74
2021/08/13 07:11:59;;;;;;;6.55;3.08;;;;;;;27.47;39.44;95635.91;5027505;28;20017;-72
2021/08/13 07:14:25;;;;;;;6.35;3.55;;;;;;;27.52;39.54;95632.34;5043286;28;20036;-74
2021/08/13 07:16:50;;;;;;;4.75;2.75;;;;;;;27.50;39.48;95640.38;5026887;28;20044;-73
2021/08/13 07:19:16;;;;;;;6.57;3.20;;;;;;;27.52;39.71;95630.38;5028348;28;20057;-73
2021/08/13 07:21:41;;;;;;;7.72;2.92;;;;;;;27.45;39.15;95621.97;5027864;28;20021;-73
2021/08/13 07:24:07;;;;;;;7.78;3.05;;;;;;;27.55;39.88;95626.56;5043321;28;20080;-74
2021/08/13 07:26:33;;;;;;;5.85;3.17;;;;;;;27.60;39.52;95633.25;5027846;28;20033;-73
2021/08/13 07:28:58;;;;;;;6.75;3.10;;;;;;;27.57;39.58;95634.28;5026216;28;20022;-74
2021/08/13 07:31:24;;;;;;;6.53;2.70;;;;;;;27.62;39.41;95641.69;5027785;28;20022;-74
2021/08/13 07:33:49;;;;;;;5.40;3.03;;;;;;;27.63;39.30;95637.69;5027463;28;20022;-73
2021/08/13 07:36:15;;;;;;;5.72;2.92;;;;;;;27.63;39.51;95635.69;5027558;28;20025;-73
2021/08/13 07:38:40;;;;;;;6.07;2.72;;;;;;;27.65;39.65;95635.16;5043255;28;20488;-74
2021/08/13 07:41:07;;;;;;;6.03;3.40;;;;;;;27.67;39.07;95627.13;5027555;28;20017;-73
2021/08/13 07:43:32;;;;;;;4.78;2.80;;;;;;;27.66;39.85;95625.66;5026060;28;20033;-72
2021/08/13 07:45:58;;;;;;;4.63;3.03;;;;;;;27.67;39.58;95627.91;5028057;28;20031;-73
2021/08/13 07:48:23;;;;;;;5.25;2.92;;;;;;;27.68;39.07;95628.63;5027848;28;20033;-74
2021/08/13 07:50:49;;;;;;;5.57;2.72;;;;;;;27.67;39.30;95621.66;5024183;28;20589;-74
2021/08/13 07:53:14;;;;;;;4.93;2.67;;;;;;;27.67;39.61;95621.66;5026904;28;20721;-74
2021/08/13 07:55:40;;;;;;;5.07;2.85;;;;;;;27.67;39.35;95616.16;5025958;28;20056;-73
2021/08/13 07:58:05;;;;;;;7.75;3.13;;;;;;;27.57;38.97;95604.09;5025156;28;20033;-74
2021/08/13 08:00:31;;;;;;;6.00;2.83;;;;;;;27.69;38.84;95624.63;5025403;28;20053;-73
2021/08/13 08:02:56;;;;;;;4.65;2.97;;;;;;;27.72;38.75;95623.59;5023650;28;20022;-74
2021/08/13 08:05:21;;;;;;;4.45;2.80;;;;;;;27.72;39.04;95626.31;4993225;28;20033;-74
2021/08/13 08:07:47;;;;;;;5.75;2.90;;;;;;;27.70;38.90;95634.31;5027163;28;20615;-73
2021/08/13 08:10:12;;;;;;;4.28;2.72;;;;;;;27.71;38.71;95644.03;5025603;28;20507;-73
2021/08/13 08:12:38;;;;;;;4.18;2.47;;;;;;;27.67;38.75;95627.13;5037743;28;20508;-73
2021/08/13 08:15:04;;;;;;;5.78;2.80;;;;;;;27.70;39.25;95631.56;5043430;28;20032;-74
2021/08/13 08:17:29;;;;;;;4.47;2.85;;;;;;;27.69;39.47;95641.09;5025936;28;20025;-74
2021/08/13 08:19:55;;;;;;;5.68;2.50;;;;;;;27.69;39.78;95649.31;5010190;28;20013;-73
2021/08/13 08:22:20;;;;;;;4.82;2.58;;;;;;;27.68;39.22;95645.81;5026106;28;20017;-75
2021/08/13 08:24:46;;;;;;;5.45;2.72;;;;;;;27.69;39.26;95641.09;5009488;28;20025;-74
2021/08/13 08:27:11;;;;;;;5.97;2.63;;;;;;;27.68;39.89;95639.59;5025173;28;20415;-75
2021/08/13 08:29:37;;;;;;;5.15;2.45;;;;;;;27.69;39.53;95641.09;5027424;28;20519;-75
2021/08/13 08:32:02;;;;;;;5.78;2.75;;;;;;;27.69;39.48;95641.81;5027567;28;20013;-76
2021/08/13 08:34:28;;;;;;;4.50;3.00;;;;;;;27.74;39.28;95639.00;5030958;28;20039;-76
2021/08/13 08:36:53;;;;;;;5.63;3.17;;;;;;;27.73;39.63;95636.03;5030838;28;20049;-75
2021/08/13 08:39:19;;;;;;;5.28;3.13;;;;;;;27.73;39.96;95621.03;5028484;28;20392;-76
2021/08/13 08:41:45;;;;;;;4.07;2.60;;;;;;;27.79;39.75;95635.41;5043370;28;20106;-76
2021/08/13 08:44:11;;;;;;;4.85;2.92;;;;;;;27.81;39.42;95621.91;5024902;28;20037;-75
2021/08/13 08:46:37;;;;;;;3.63;2.33;;;;;;;27.79;39.70;95634.69;5029913;28;20032;-75
2021/08/13 08:49:03;;;;;;;5.53;3.00;;;;;;;27.74;39.89;95622.53;5029919;28;20029;-75
2021/08/13 08:51:28;;;;;;;3.78;2.40;;;;;;;27.75;39.58;95613.00;5029413;28;20056;-75
2021/08/13 08:53:55;;;;;;;5.70;2.78;;;;;;;27.86;39.33;95628.56;5030635;28;20091;-78
2021/08/13 08:56:25;;;;;;;3.70;2.50;;;;;;;27.87;39.53;95630.78;5016203;28;20029;-76
2021/08/13 08:58:50;;;;;;;4.38;2.53;;;;;;;27.88;39.62;95626.78;5033582;28;20028;-76
2021/08/13 09:01:16;;;;;;;3.75;2.50;;;;;;;27.90;39.11;95627.00;5025978;28;20050;-73
2021/08/13 09:03:44;;;;;;;4.00;2.78;;;;;;;27.91;40.31;95625.75;4991436;28;20052;-79
2021/08/13 09:06:10;;;;;;;6.22;3.17;;;;;;;27.92;39.62;95627.22;5024357;28;20038;-76
2021/08/13 09:08:36;;;;;;;5.10;2.95;;;;;;;27.94;39.33;95624.69;5026611;28;20037;-74
2021/08/13 09:11:02;;;;;;;4.22;2.63;;;;;;;27.99;39.25;95621.09;5024350;28;20048;-76
2021/08/13 09:13:27;;;;;;;4.75;2.80;;;;;;;28.03;39.26;95627.03;5024877;28;20033;-76
2021/08/13 09:15:53;;;;;;;5.53;2.75;;;;;;;28.08;39.61;95623.44;5026299;28;20020;-76
2021/08/13 09:18:23;;;;;;;6.03;2.78;;;;;;;28.08;39.38;95612.47;5025582;28;20485;-76
2021/08/13 09:20:48;;;;;;;3.75;2.63;;;;;;;28.23;39.09;95618.22;5006503;28;20027;-74
2021/08/13 09:23:35;;;;;;;5.40;3.10;;;;;;;28.33;38.98;95622.75;5024372;28;20155;-72
2021/08/13 09:26:12;;;;;;;4.88;2.70;;;;;;;28.39;38.81;95625.41;5024828;28;20033;-75
2021/08/13 09:28:46;;;;;;;5.53;2.40;;;;;;;28.55;38.61;95610.59;5024598;28;20041;-75
2021/08/13 09:31:15;;;;;;;4.80;2.83;;;;;;;28.66;39.11;95618.66;5020531;28;20856;-77
2021/08/13 09:33:42;;;;;;;3.63;2.45;;;;;;;28.76;38.64;95615.72;5025648;28;20112;-79
2021/08/13 09:36:07;;;;;;;5.50;2.78;;;;;;;28.89;38.10;95618.44;5026519;28;20029;-78
2021/08/13 09:38:33;;;;;;;5.35;2.83;;;;;;;28.98;37.55;95615.22;5026667;28;20117;-77
2021/08/13 09:41:10;;;;;;;5.45;3.03;;;;;;;29.17;37.61;95615.09;5025404;28;20021;-72
2021/08/13 09:43:58;;;;;;;6.03;3.38;;;;;;;29.28;37.30;95615.63;5025984;28;20025;-76
2021/08/13 09:46:24;;;;;;;5.10;3.58;;;;;;;29.34;37.36;95618.97;5025550;28;20030;-73
2021/08/13 09:48:50;;;;;;;5.30;2.95;;;;;;;29.37;37.65;95617.91;5024073;28;20024;-75
2021/08/13 09:51:34;;;;;;;4.47;2.90;;;;;;;29.51;36.82;95616.63;5025401;28;20029;-76
2021/08/13 09:54:04;;;;;;;4.70;2.80;;;;;;;29.52;37.11;95618.06;5024231;28;20037;-72
2021/08/13 09:56:31;;;;;;;4.72;2.88;;;;;;;29.58;36.75;95615.94;5039357;28;20033;-73
2021/08/13 09:59:13;;;;;;;4.85;3.40;;;;;;;29.67;36.58;95603.19;5023706;28;20021;-75
2021/08/13 10:01:49;;;;;;;4.63;2.90;;;;;;;29.74;37.06;95602.50;5024957;28;20065;-77
2021/08/13 10:04:15;;;;;;;6.75;2.70;;;;;;;29.86;37.10;95614.75;5019257;28;20040;-77
2021/08/13 10:06:41;;;;;;;4.97;2.30;;;;;;;29.97;36.93;95602.72;5025465;28;20021;-78
2021/08/13 10:09:26;;;;;;;5.88;2.83;;;;;;;30.02;36.54;95599.84;5026597;28;20514;-78
2021/08/13 10:11:58;;;;;;;5.00;3.17;;;;;;;30.09;36.31;95601.16;5026265;28;20570;-78
2021/08/13 10:14:34;;;;;;;5.00;3.10;;;;;;;30.19;36.23;95600.16;5026730;28;20101;-72
2021/08/13 10:17:16;;;;;;;5.80;3.28;;;;;;;30.24;36.64;95599.28;5024938;28;20044;-77
2021/08/13 10:19:43;;;;;;;4.50;2.88;;;;;;;30.27;36.71;95598.19;5032007;28;20033;-76
2021/08/13 10:22:09;;;;;;;6.47;3.03;;;;;;;30.33;36.71;95596.03;5030118;28;20113;-75
2021/08/13 10:24:35;;;;;;;6.85;3.38;;;;;;;30.39;36.40;95599.41;5034128;28;20040;-76
2021/08/13 10:27:01;;;;;;;5.45;3.17;;;;;;;30.46;36.05;95601.47;5032029;28;20040;-77
2021/08/13 10:29:27;;;;;;;5.47;3.25;;;;;;;30.51;35.99;95606.06;5028348;28;20033;-75
2021/08/13 10:31:52;;;;;;;4.00;2.60;;;;;;;30.57;35.92;95598.38;5049747;28;20434;-78
2021/08/13 10:34:18;;;;;;;6.50;3.40;;;;;;;30.64;36.24;95603.22;5031284;28;20029;-78
2021/08/13 10:36:43;;;;;;;5.30;3.10;;;;;;;30.67;35.85;95591.84;5024840;28;20033;-77
2021/08/13 10:39:09;;;;;;;5.43;3.40;;;;;;;30.74;36.06;95613.22;5019061;28;20246;-76
2021/08/13 10:41:38;;;;;;;5.30;3.03;;;;;;;30.69;35.99;95601.03;5021728;28;20614;-76
2021/08/13 10:44:04;;;;;;;5.72;2.83;;;;;;;30.72;36.22;95594.44;5026700;28;20052;-77
2021/08/13 10:46:31;;;;;;;5.15;3.03;;;;;;;30.68;35.76;95599.56;5047050;28;20025;-76
2021/08/13 10:48:56;;;;;;;4.88;3.10;;;;;;;30.65;36.05;95595.13;5032145;28;20029;-78
2021/08/13 10:51:29;;;;;;;4.70;3.03;;;;;;;30.61;35.89;95593.28;5030937;28;20033;-77
2021/08/13 10:54:08;;;;;;;4.93;3.22;;;;;;;30.56;36.56;95591.41;5031211;28;20059;-77
2021/08/13 10:57:00;;;;;;;6.00;3.88;;;;;;;30.48;36.07;95596.88;5026519;28;20102;-77
2021/08/13 10:59:41;;;;;;;5.68;3.00;;;;;;;30.34;36.02;95587.25;5027021;28;20722;-77
2021/08/13 11:02:13;;;;;;;6.10;3.53;;;;;;;30.38;36.14;95586.91;5030199;28;20095;-76
2021/08/13 11:04:43;;;;;;;4.68;3.22;;;;;;;30.33;36.68;95579.50;5028587;28;20033;-74
2021/08/13 11:07:09;;;;;;;5.60;3.20;;;;;;;30.26;36.14;95585.69;5029620;28;20017;-75
2021/08/13 11:09:35;;;;;;;5.80;3.00;;;;;;;30.17;36.65;95566.88;5028054;28;20181;-75
2021/08/13 11:12:05;;;;;;;4.38;3.00;;;;;;;30.17;36.88;95572.41;5027719;28;20014;-74
2021/08/13 11:14:48;;;;;;;4.68;3.17;;;;;;;30.06;36.99;95567.19;5027272;28;20120;-75
2021/08/13 11:17:32;;;;;;;4.85;2.97;;;;;;;30.05;36.72;95565.69;5028431;28;20064;-74
2021/08/13 11:20:04;;;;;;;5.22;3.30;;;;;;;29.99;36.95;95562.34;5028313;28;20809;-73
2021/08/13 11:22:32;;;;;;;5.85;3.67;;;;;;;29.96;37.03;95566.19;5026324;28;20116;-75
2021/08/13 11:24:58;;;;;;;4.45;3.13;;;;;;;29.95;36.56;95561.94;5027545;28;20021;-74
2021/08/13 11:27:23;;;;;;;4.07;3.00;;;;;;;29.91;36.77;95555.28;5026907;28;20136;-74
2021/08/13 11:29:49;;;;;;;4.22;2.78;;;;;;;29.81;37.21;95563.31;5026457;28;20028;-74
2021/08/13 11:32:14;;;;;;;5.10;3.33;;;;;;;29.85;36.53;95560.97;5027745;28;20010;-75